createdAt,value
2023-04-01T00:01:17.813Z,98980.37
2023-04-01T00:03:45.590Z,98983.88
2023-04-01T00:06:18.091Z,98978.03
2023-04-01T00:08:45.393Z,98974.09
2023-04-01T00:11:12.302Z,98968.19
2023-04-01T00:13:38.953Z,98970.13
2023-04-01T00:16:17.720Z,98963.69
2023-04-01T00:18:48.527Z,98958.94
2023-04-01T00:21:15.602Z,98956.91
2023-04-01T00:23:42.669Z,98952.19
2023-04-01T00:26:09.609Z,98960.38
2023-04-01T00:28:37.019Z,98961.97
2023-04-01T00:31:11.896Z,98959.72
2023-04-01T00:33:39.593Z,98953.66
2023-04-01T00:36:12.152Z,98955.09
2023-04-01T00:38:39.599Z,98939.88
2023-04-01T00:41:07.057Z,98935.34
2023-04-01T00:43:34.536Z,98950.00
2023-04-01T00:46:01.158Z,98949.41
2023-04-01T00:48:32.344Z,98940.31
2023-04-01T00:51:05.786Z,98941.19
2023-04-01T00:53:33.941Z,98948.16
2023-04-01T00:56:32.384Z,98945.78
2023-04-01T00:59:02.650Z,98935.19
2023-04-01T01:01:31.642Z,98939.59
2023-04-01T01:03:58.326Z,98938.31
2023-04-01T01:06:56.871Z,98943.00
2023-04-01T01:09:53.986Z,98942.50
2023-04-01T01:12:26.802Z,98941.53
2023-04-01T01:15:13.004Z,98937.72
2023-04-01T01:17:52.725Z,98941.03
2023-04-01T01:20:34.915Z,98944.00
2023-04-01T01:23:22.851Z,98933.94
2023-04-01T01:25:49.400Z,98943.38
2023-04-01T01:28:27.913Z,98945.38
2023-04-01T01:31:20.100Z,98940.13
2023-04-01T01:33:54.304Z,98932.00
2023-04-01T01:36:22.260Z,98928.53
2023-04-01T01:38:51.791Z,98930.34
2023-04-01T01:41:21.214Z,98937.31
2023-04-01T01:43:51.752Z,98935.09
2023-04-01T01:46:23.990Z,98933.37
2023-04-01T01:48:52.099Z,98932.81
2023-04-01T01:51:21.270Z,98931.50
2023-04-01T01:53:47.918Z,98930.62
2023-04-01T01:56:15.052Z,98930.38
2023-04-01T01:58:46.280Z,98937.72
2023-04-01T02:01:17.969Z,98930.78
2023-04-01T02:03:46.765Z,98935.25
2023-04-01T02:06:18.976Z,98935.47
2023-04-01T02:08:52.832Z,98935.69
2023-04-01T02:11:24.082Z,98934.31
2023-04-01T02:14:02.330Z,98935.56
2023-04-01T02:16:35.857Z,98935.75
2023-04-01T02:19:08.387Z,98928.97
2023-04-01T02:21:36.866Z,98931.84
2023-04-01T02:24:07.075Z,98931.72
2023-04-01T02:26:33.845Z,98921.06
2023-04-01T02:29:02.379Z,98918.63
2023-04-01T02:31:29.669Z,98922.88
2023-04-01T02:33:56.317Z,98924.53
2023-04-01T02:36:23.076Z,98921.53
2023-04-01T02:38:52.131Z,98919.72
2023-04-01T02:41:18.830Z,98915.78
2023-04-01T02:43:45.373Z,98915.19
2023-04-01T02:46:12.066Z,98907.41
2023-04-01T02:48:38.705Z,98915.47
2023-04-01T02:51:05.461Z,98915.03
2023-04-01T02:53:32.013Z,98914.25
2023-04-01T02:55:58.587Z,98911.47
2023-04-01T02:58:25.361Z,98927.72
2023-04-01T03:00:51.976Z,98921.47
2023-04-01T03:03:18.735Z,98930.06
2023-04-01T03:05:45.390Z,98917.34
2023-04-01T03:08:12.800Z,98915.19
2023-04-01T03:10:39.439Z,98916.25
2023-04-01T03:13:07.255Z,98921.44
2023-04-01T03:15:34.146Z,98920.63
2023-04-01T03:18:01.155Z,98920.19
2023-04-01T03:20:27.859Z,98916.06
2023-04-01T03:22:54.460Z,98915.22
2023-04-01T03:25:21.158Z,98906.75
2023-04-01T03:27:47.755Z,98906.59
2023-04-01T03:30:14.422Z,98904.37
2023-04-01T03:32:41.089Z,98914.44
2023-04-01T03:35:08.228Z,98924.22
2023-04-01T03:37:34.908Z,98933.56
2023-04-01T03:40:01.642Z,98938.44
2023-04-01T03:42:28.338Z,98945.12
2023-04-01T03:44:55.021Z,98942.94
2023-04-01T03:47:21.684Z,98937.78
2023-04-01T03:49:48.340Z,98945.69
2023-04-01T03:52:15.004Z,98933.41
2023-04-01T03:54:41.594Z,98928.38
2023-04-01T03:57:08.322Z,98932.25
2023-04-01T03:59:35.456Z,98936.09
2023-04-01T04:02:02.141Z,98942.25
2023-04-01T04:04:28.981Z,98938.91
2023-04-01T04:06:56.154Z,98946.09
2023-04-01T04:09:23.462Z,98952.69
2023-04-01T04:11:50.773Z,98951.03
2023-04-01T04:14:17.737Z,98943.69
2023-04-01T04:16:44.331Z,98944.69
2023-04-01T04:19:10.953Z,98949.31
2023-04-01T04:21:37.523Z,98951.25
2023-04-01T04:24:04.524Z,98939.69
2023-04-01T04:26:31.328Z,98946.44
2023-04-01T04:28:58.053Z,98948.09
2023-04-01T04:31:25.950Z,98943.53
2023-04-01T04:33:56.074Z,98939.25
2023-04-01T04:36:23.370Z,98942.47
2023-04-01T04:38:49.984Z,98934.75
2023-04-01T04:41:18.827Z,98936.53
2023-04-01T04:43:57.010Z,98937.16
2023-04-01T04:46:24.354Z,98930.81
2023-04-01T04:48:51.216Z,98931.34
2023-04-01T04:51:19.778Z,98942.00
2023-04-01T04:53:47.032Z,98937.56
2023-04-01T04:56:13.795Z,98932.31
2023-04-01T04:58:41.048Z,98935.75
2023-04-01T05:01:12.876Z,98932.53
2023-04-01T05:03:39.813Z,98932.91
2023-04-01T05:06:08.261Z,98939.38
2023-04-01T05:08:35.413Z,98932.16
2023-04-01T05:11:02.397Z,98930.81
2023-04-01T05:13:29.860Z,98931.63
2023-04-01T05:15:56.714Z,98936.22
2023-04-01T05:18:23.597Z,98934.63
2023-04-01T05:20:52.418Z,98937.22
2023-04-01T05:23:19.372Z,98935.91
2023-04-01T05:25:46.401Z,98938.97
2023-04-01T05:28:13.402Z,98941.09
2023-04-01T05:30:44.013Z,98941.47
2023-04-01T05:33:12.084Z,98949.28
2023-04-01T05:35:38.785Z,98949.09
2023-04-01T05:38:06.522Z,98956.00
2023-04-01T05:40:34.240Z,98947.09
2023-04-01T05:43:01.596Z,98953.09
2023-04-01T05:45:28.539Z,98941.97
2023-04-01T05:47:55.336Z,98932.56
2023-04-01T05:50:21.999Z,98930.53
2023-04-01T05:52:48.607Z,98931.47
2023-04-01T05:55:15.462Z,98936.63
2023-04-01T05:57:42.220Z,98935.31
2023-04-01T06:00:09.877Z,98930.84
2023-04-01T06:02:36.584Z,98934.53
2023-04-01T06:05:16.351Z,98933.16
2023-04-01T06:07:42.989Z,98939.38
2023-04-01T06:10:20.239Z,98938.28
2023-04-01T06:12:58.481Z,98929.56
2023-04-01T06:15:36.001Z,98933.13
2023-04-01T06:18:23.943Z,98926.31
2023-04-01T06:21:12.348Z,98921.00
2023-04-01T06:23:41.809Z,98922.34
2023-04-01T06:26:45.026Z,98926.72
2023-04-01T06:29:37.964Z,98929.75
2023-04-01T06:32:28.737Z,98923.59
2023-04-01T06:35:13.413Z,98927.37
2023-04-01T06:37:46.119Z,98930.50
2023-04-01T06:40:41.998Z,98938.50
2023-04-01T06:43:18.010Z,98936.81
2023-04-01T06:45:53.437Z,98947.03
2023-04-01T06:48:34.705Z,98948.66
2023-04-01T06:51:23.710Z,98949.09
2023-04-01T06:54:17.588Z,98951.09
2023-04-01T06:56:47.679Z,98946.31
2023-04-01T06:59:20.098Z,98944.25
2023-04-01T07:01:48.957Z,98948.47
2023-04-01T07:04:21.835Z,98941.63
2023-04-01T07:06:55.088Z,98946.12
2023-04-01T07:09:37.958Z,98949.16
2023-04-01T07:12:15.610Z,98945.84
2023-04-01T07:14:43.971Z,98940.03
2023-04-01T07:17:17.881Z,98945.75
2023-04-01T07:20:12.249Z,98951.38
2023-04-01T07:22:46.067Z,98950.19
2023-04-01T07:25:19.334Z,98951.84
2023-04-01T07:27:47.548Z,98957.22
2023-04-01T07:30:24.396Z,98958.88
2023-04-01T07:33:26.328Z,98951.59
2023-04-01T07:36:04.271Z,98947.88
2023-04-01T07:38:49.697Z,98942.88
2023-04-01T07:41:53.782Z,98941.91
2023-04-01T07:44:58.890Z,98933.00
2023-04-01T07:47:53.522Z,98943.25
2023-04-01T07:50:53.211Z,98934.84
2023-04-01T07:54:01.342Z,98939.06
2023-04-01T07:57:11.143Z,98942.88
2023-04-01T07:59:54.523Z,98951.00
2023-04-01T08:02:36.094Z,98944.94
2023-04-01T08:05:25.759Z,98942.97
2023-04-01T08:08:07.135Z,98948.31
2023-04-01T08:10:53.277Z,98952.88
2023-04-01T08:13:52.765Z,98953.03
2023-04-01T08:16:27.422Z,98952.03
2023-04-01T08:19:16.708Z,98953.88
2023-04-01T08:21:51.609Z,98955.50
2023-04-01T08:24:47.610Z,98943.03
2023-04-01T08:27:53.011Z,98952.88
2023-04-01T08:30:32.269Z,98953.69
2023-04-01T08:33:12.328Z,98965.56
2023-04-01T08:35:51.640Z,98957.00
2023-04-01T08:38:33.706Z,98951.03
2023-04-01T08:41:03.001Z,98953.00
2023-04-01T08:43:48.403Z,98957.91
2023-04-01T08:46:41.433Z,98972.06
2023-04-01T08:49:44.616Z,98955.81
2023-04-01T08:52:42.374Z,98954.56
